Time,TemperatureF,DewpointF,PressureIn,WindDirection,WindDirectionDegrees,WindSpeedMPH,WindSpeedGustMPH,Humidity,HourlyPrecipIn,Conditions,Clouds,dailyrainin,SoftwareType,DateUTC
2013-06-06 00:00:00,60.5,53.3,30.02,North,2,5.0,7.0,77,0.00,RA,RA,0.00,WeatherDisplay:10.37,2013-06-06 05:00:00,
2013-06-06 00:06:00,60.6,53.4,30.02,WNW,296,5.0,7.0,77,0.00,RA,RA,0.00,WeatherDisplay:10.37,2013-06-06 05:06:00,
2013-06-06 00:12:00,60.7,53.4,30.02,SW,232,2.0,7.0,77,0.00,BKN,BKN,0.00,WeatherDisplay:10.37,2013-06-06 05:12:00,
2013-06-06 00:18:00,60.8,53.5,30.03,SSE,152,3.0,5.0,77,0.00,BKN,BKN,0.00,WeatherDisplay:10.37,2013-06-06 05:18:00,
2013-06-06 00:24:00,60.7,53.4,30.03,NW,326,2.0,5.0,77,0.00,BKN,BKN,0.00,WeatherDisplay:10.37,2013-06-06 05:24:00,
2013-06-06 00:30:00,60.7,53.4,30.02,North,349,5.0,6.0,77,0.00,BKN,BKN,0.00,WeatherDisplay:10.37,2013-06-06 05:30:00,
2013-06-06 00:36:00,60.8,53.5,30.02,NNE,23,3.0,7.0,77,0.00,BKN,BKN,0.00,WeatherDisplay:10.37,2013-06-06 05:36:00,
2013-06-06 00:42:00,60.7,53.8,30.02,North,5,3.0,8.0,78,0.00,BKN,BKN,0.00,WeatherDisplay:10.37,2013-06-06 05:42:00,
2013-06-06 00:48:00,60.7,53.8,30.02,NE,34,3.0,9.0,78,0.00,BKN,BKN,0.00,WeatherDisplay:10.37,2013-06-06 05:48:00,
2013-06-06 00:54:00,60.6,53.7,30.01,NNE,12,6.0,7.0,78,0.00,BKN,BKN,0.00,WeatherDisplay:10.37,2013-06-06 05:54:00,
2013-06-06 01:00:00,60.5,53.6,30.00,NE,44,5.0,7.0,78,0.00,BKN,BKN,0.00,WeatherDisplay:10.37,2013-06-06 06:00:00,
2013-06-06 01:06:00,60.5,53.6,30.00,NE,38,6.0,7.0,78,0.00,BKN,BKN,0.00,WeatherDisplay:10.37,2013-06-06 06:06:00,
2013-06-06 01:12:00,60.8,53.9,30.00,WNW,298,0.0,5.0,78,0.00,BKN,BKN,0.00,WeatherDisplay:10.37,2013-06-06 06:12:00,
2013-06-06 01:18:00,60.8,53.5,30.01,NNW,348,2.0,4.0,77,0.00,BKN,BKN,0.00,WeatherDisplay:10.37,2013-06-06 06:18:00,
2013-06-06 01:24:00,60.7,53.4,30.01,NNE,31,3.0,7.0,77,0.00,BKN,BKN,0.00,WeatherDisplay:10.37,2013-06-06 06:24:00,
2013-06-06 01:30:00,60.7,53.4,30.01,North,352,3.0,6.0,77,0.00,BKN,BKN,0.00,WeatherDisplay:10.37,2013-06-06 06:30:00,
2013-06-06 01:36:00,60.7,53.4,30.01,NNW,328,5.0,9.0,77,0.00,BKN,BKN,0.00,WeatherDisplay:10.37,2013-06-06 06:36:00,
2013-06-06 01:42:00,60.5,53.2,30.00,NNE,20,5.0,12.0,77,0.00,BKN,BKN,0.00,WeatherDisplay:10.37,2013-06-06 06:42:00,
2013-06-06 01:48:00,60.5,53.2,30.00,NNW,331,3.0,5.0,77,0.00,BKN,BKN,0.00,WeatherDisplay:10.37,2013-06-06 06:48:00,
2013-06-06 01:54:00,60.5,53.2,30.01,NW,324,5.0,6.0,77,0.00,BKN,BKN,0.00,WeatherDisplay:10.37,2013-06-06 06:54:00,
2013-06-06 02:00:00,60.5,53.2,30.01,WNW,298,6.0,7.0,77,0.00,BKN,BKN,0.00,WeatherDisplay:10.37,2013-06-06 07:00:00,
2013-06-06 02:06:00,60.3,53.0,30.01,WNW,290,3.0,6.0,77,0.00,BKN,BKN,0.00,WeatherDisplay:10.37,2013-06-06 07:06:00,
2013-06-06 02:12:00,60.2,53.0,30.01,North,352,3.0,6.0,77,0.00,BKN,BKN,0.00,WeatherDisplay:10.37,2013-06-06 07:12:00,
2013-06-06 02:18:00,60.1,52.8,30.01,NNW,339,3.0,7.0,77,0.00,BKN,BKN,0.00,WeatherDisplay:10.37,2013-06-06 07:18:00,
2013-06-06 02:24:00,59.9,52.6,30.01,North,351,0.0,0.0,77,0.00,BKN,BKN,0.00,WeatherDisplay:10.37,2013-06-06 07:24:00,
2013-06-06 02:30:00,59.8,52.5,30.01,NE,42,5.0,8.0,77,0.00,BKN,BKN,0.00,WeatherDisplay:10.37,2013-06-06 07:30:00,
2013-06-06 02:36:00,59.8,52.9,30.01,NW,309,1.0,5.0,78,0.00,BKN,BKN,0.00,WeatherDisplay:10.37,2013-06-06 07:36:00,
2013-06-06 02:42:00,59.8,52.9,30.01,NNW,341,0.0,0.0,78,0.00,BKN,BKN,0.00,WeatherDisplay:10.37,2013-06-06 07:42:00,
2013-06-06 02:48:00,59.6,52.7,30.01,NNW,333,1.0,6.0,78,0.00,BKN,BKN,0.00,WeatherDisplay:10.37,2013-06-06 07:48:00,
2013-06-06 02:54:00,59.4,52.8,30.00,NNW,327,0.0,0.0,79,0.00,BKN,BKN,0.00,WeatherDisplay:10.37,2013-06-06 07:54:00,
2013-06-06 03:00:00,59.2,52.7,30.00,West,278,2.0,5.0,79,0.00,BKN,BKN,0.00,WeatherDisplay:10.37,2013-06-06 08:00:00,
2013-06-06 03:06:00,59.0,52.8,30.01,NW,313,1.0,5.0,80,0.00,BKN,BKN,0.00,WeatherDisplay:10.37,2013-06-06 08:06:00,
2013-06-06 03:12:00,58.9,52.8,30.01,NW,312,0.0,0.0,80,0.00,BKN,BKN,0.00,WeatherDisplay:10.37,2013-06-06 08:12:00,
2013-06-06 03:18:00,58.7,52.8,30.01,North,356,0.0,0.0,81,0.00,BKN,BKN,0.00,WeatherDisplay:10.37,2013-06-06 08:18:00,
2013-06-06 03:24:00,58.5,52.6,30.00,NNE,27,0.0,0.0,81,0.00,BKN,BKN,0.00,WeatherDisplay:10.37,2013-06-06 08:24:00,
2013-06-06 03:30:00,58.1,52.6,30.00,NNE,16,0.0,0.0,82,0.00,BKN,BKN,0.00,WeatherDisplay:10.37,2013-06-06 08:30:00,
2013-06-06 03:36:00,57.8,52.3,30.00,NW,323,0.0,0.0,82,0.00,BKN,BKN,0.00,WeatherDisplay:10.37,2013-06-06 08:36:00,
2013-06-06 03:42:00,57.6,52.8,30.00,NW,311,0.0,0.0,84,0.00,BKN,BKN,0.00,WeatherDisplay:10.37,2013-06-06 08:42:00,
2013-06-06 03:48:00,57.6,52.8,30.00,WNW,287,0.0,0.0,84,0.00,BKN,BKN,0.00,WeatherDisplay:10.37,2013-06-06 08:48:00,
2013-06-06 03:54:00,57.4,52.9,30.00,WNW,303,0.0,0.0,85,0.00,BKN,BKN,0.00,WeatherDisplay:10.37,2013-06-06 08:54:00,
2013-06-06 04:00:00,57.1,52.6,30.00,NNW,331,0.0,0.0,85,0.00,BKN,BKN,0.00,WeatherDisplay:10.37,2013-06-06 09:00:00,
2013-06-06 04:06:00,57.1,52.6,29.99,NE,48,0.0,0.0,85,0.00,BKN,BKN,0.00,WeatherDisplay:10.37,2013-06-06 09:06:00,
2013-06-06 04:12:00,56.7,52.2,29.99,NNW,337,0.0,0.0,85,0.00,BKN,BKN,0.00,WeatherDisplay:10.37,2013-06-06 09:12:00,
2013-06-06 04:18:00,56.9,52.4,29.99,NW,304,1.0,4.0,85,0.00,BKN,BKN,0.00,WeatherDisplay:10.37,2013-06-06 09:18:00,
2013-06-06 04:24:00,56.9,52.4,29.99,NNW,328,0.0,4.0,85,0.00,BKN,BKN,0.00,WeatherDisplay:10.37,2013-06-06 09:24:00,
2013-06-06 04:30:00,57.1,52.6,29.99,NNW,330,0.0,0.0,85,0.00,BKN,BKN,0.00,WeatherDisplay:10.37,2013-06-06 09:30:00,
2013-06-06 04:36:00,57.1,52.6,29.99,NW,318,0.0,0.0,85,0.00,BKN,BKN,0.00,WeatherDisplay:10.37,2013-06-06 09:36:00,
2013-06-06 04:42:00,57.2,52.4,29.99,NW,308,0.0,0.0,84,0.00,BKN,BKN,0.00,WeatherDisplay:10.37,2013-06-06 09:42:00,
2013-06-06 04:48:00,57.2,52.4,29.99,West,280,1.0,7.0,84,0.00,BKN,BKN,0.00,WeatherDisplay:10.37,2013-06-06 09:48:00,
2013-06-06 04:54:00,57.2,52.4,30.00,NNW,329,2.0,5.0,84,0.00,BKN,BKN,0.00,WeatherDisplay:10.37,2013-06-06 09:54:00,
2013-06-06 05:00:00,57.1,52.3,30.00,NW,324,1.0,6.0,84,0.00,BKN,BKN,0.00,WeatherDisplay:10.37,2013-06-06 10:00:00,
2013-06-06 05:06:00,56.7,52.2,30.00,NW,315,0.0,4.0,85,0.00,BKN,BKN,0.00,WeatherDisplay:10.37,2013-06-06 10:06:00,
2013-06-06 05:12:00,56.7,52.2,30.00,NW,326,3.0,6.0,85,0.00,BKN,BKN,0.00,WeatherDisplay:10.37,2013-06-06 10:12:00,
2013-06-06 05:18:00,56.5,52.0,30.00,NW,323,2.0,3.0,85,0.00,BKN,BKN,0.00,WeatherDisplay:10.37,2013-06-06 10:18:00,
2013-06-06 05:24:00,56.5,52.0,30.00,WNW,291,0.0,5.0,85,0.00,BKN,BKN,0.00,WeatherDisplay:10.37,2013-06-06 10:24:00,
2013-06-06 05:30:00,56.5,52.0,30.00,NW,306,3.0,5.0,85,0.00,BKN,BKN,0.00,WeatherDisplay:10.37,2013-06-06 10:30:00,
2013-06-06 05:36:00,56.3,51.8,30.00,NW,308,0.0,5.0,85,0.00,BKN,BKN,0.00,WeatherDisplay:10.37,2013-06-06 10:36:00,
2013-06-06 05:42:00,56.2,51.8,30.00,WNW,294,2.0,5.0,85,0.00,BKN,BKN,0.00,WeatherDisplay:10.37,2013-06-06 10:42:00,
2013-06-06 05:48:00,55.8,51.7,30.00,NNW,342,1.0,5.0,86,0.00,BKN,BKN,0.00,WeatherDisplay:10.37,2013-06-06 10:48:00,
2013-06-06 05:54:00,56.0,51.8,30.00,NW,312,0.0,5.0,86,0.00,BKN,BKN,0.00,WeatherDisplay:10.37,2013-06-06 10:54:00,
2013-06-06 06:00:00,55.8,51.6,30.00,NNW,340,3.0,5.0,86,0.00,BKN,BKN,0.00,WeatherDisplay:10.37,2013-06-06 11:00:00,
2013-06-06 06:06:00,55.8,51.6,30.01,NW,320,0.0,3.0,86,0.00,BKN,BKN,0.00,WeatherDisplay:10.37,2013-06-06 11:06:00,
2013-06-06 06:12:00,55.4,51.2,30.01,NNE,26,0.0,3.0,86,0.00,BKN,BKN,0.00,WeatherDisplay:10.37,2013-06-06 11:12:00,
2013-06-06 06:18:00,55.6,51.4,30.00,NNW,329,0.0,0.0,86,0.00,BKN,BKN,0.00,WeatherDisplay:10.37,2013-06-06 11:18:00,
2013-06-06 06:24:00,55.8,51.6,30.00,NW,314,0.0,0.0,86,0.00,BKN,BKN,0.00,WeatherDisplay:10.37,2013-06-06 11:24:00,
2013-06-06 06:30:00,55.6,51.4,30.01,NW,313,0.0,3.0,86,0.00,BKN,BKN,0.00,WeatherDisplay:10.37,2013-06-06 11:30:00,
2013-06-06 06:36:00,55.6,51.4,30.01,NE,43,0.0,0.0,86,0.00,BKN,BKN,0.00,WeatherDisplay:10.37,2013-06-06 11:36:00,
2013-06-06 06:42:00,55.4,51.2,30.00,NE,53,3.0,5.0,86,0.00,BKN,BKN,0.00,WeatherDisplay:10.37,2013-06-06 11:42:00,
2013-06-06 06:48:00,55.6,51.4,30.00,NNW,332,5.0,8.0,86,0.00,BKN,BKN,0.00,WeatherDisplay:10.37,2013-06-06 11:48:00,
2013-06-06 06:54:00,55.6,51.5,30.00,West,281,0.0,0.0,86,0.00,BKN,BKN,0.00,WeatherDisplay:10.37,2013-06-06 11:54:00,
2013-06-06 07:00:00,56.0,51.8,30.00,NW,315,2.0,6.0,86,0.00,BKN,BKN,0.00,WeatherDisplay:10.37,2013-06-06 12:00:00,
2013-06-06 07:06:00,56.2,52.0,30.00,WNW,294,1.0,3.0,86,0.00,BKN,BKN,0.00,WeatherDisplay:10.37,2013-06-06 12:06:00,
2013-06-06 07:12:00,56.2,52.0,30.00,WNW,294,5.0,7.0,86,0.00,BKN,BKN,0.00,WeatherDisplay:10.37,2013-06-06 12:12:00,
2013-06-06 07:18:00,56.2,52.0,30.00,NW,314,0.0,0.0,86,0.00,BKN,BKN,0.00,WeatherDisplay:10.37,2013-06-06 12:18:00,
2013-06-06 07:24:00,56.3,51.8,30.00,WNW,300,2.0,7.0,85,0.00,BKN,BKN,0.00,WeatherDisplay:10.37,2013-06-06 12:24:00,
2013-06-06 07:30:00,56.7,52.2,30.00,WNW,298,0.0,5.0,85,0.00,BKN,BKN,0.00,WeatherDisplay:10.37,2013-06-06 12:30:00,
2013-06-06 07:36:00,56.9,52.1,30.01,NW,309,3.0,5.0,84,0.00,BKN,BKN,0.00,WeatherDisplay:10.37,2013-06-06 12:36:00,
2013-06-06 07:42:00,57.2,52.4,30.01,WNW,290,3.0,6.0,84,0.00,BKN,BKN,0.00,WeatherDisplay:10.37,2013-06-06 12:42:00,
2013-06-06 07:48:00,57.6,52.1,30.01,WNW,296,5.0,6.0,82,0.00,BKN,BKN,0.00,WeatherDisplay:10.37,2013-06-06 12:48:00,
2013-06-06 07:54:00,58.1,52.3,30.01,West,279,2.0,8.0,81,0.00,BKN,BKN,0.00,WeatherDisplay:10.37,2013-06-06 12:54:00,
2013-06-06 08:00:00,58.3,52.5,30.01,West,280,5.0,9.0,81,0.00,BKN,BKN,0.00,WeatherDisplay:10.37,2013-06-06 13:00:00,
2013-06-06 08:06:00,58.7,52.5,30.01,NNW,330,5.0,8.0,80,0.00,BKN,BKN,0.00,WeatherDisplay:10.37,2013-06-06 13:06:00,
2013-06-06 08:12:00,59.0,52.5,30.01,NNW,342,6.0,7.0,79,0.00,BKN,BKN,0.00,WeatherDisplay:10.37,2013-06-06 13:12:00,
2013-06-06 08:18:00,59.6,52.7,30.02,NE,41,6.0,7.0,78,0.00,BKN,BKN,0.00,WeatherDisplay:10.37,2013-06-06 13:18:00,
2013-06-06 08:24:00,59.8,52.9,30.02,NNW,345,3.0,7.0,78,0.00,BKN,BKN,0.00,WeatherDisplay:10.37,2013-06-06 13:24:00,
2013-06-06 08:30:00,60.5,53.2,30.02,North,2,3.0,7.0,77,0.00,BKN,BKN,0.00,WeatherDisplay:10.37,2013-06-06 13:30:00,
2013-06-06 08:36:00,61.2,53.5,30.02,ENE,58,3.0,5.0,76,0.00,BKN,BKN,0.00,WeatherDisplay:10.37,2013-06-06 13:36:00,
2013-06-06 08:42:00,61.6,52.8,30.02,NW,322,5.0,7.0,73,0.00,BKN,BKN,0.00,WeatherDisplay:10.37,2013-06-06 13:42:00,
2013-06-06 08:48:00,61.4,53.4,30.02,NW,310,7.0,7.0,75,0.00,BKN,BKN,0.00,WeatherDisplay:10.37,2013-06-06 13:48:00,
2013-06-06 08:54:00,62.1,53.3,30.02,North,352,6.0,8.0,73,0.00,BKN,BKN,0.00,WeatherDisplay:10.37,2013-06-06 13:54:00,
2013-06-06 09:00:00,61.9,53.1,30.02,NNW,344,5.0,9.0,73,0.00,BKN,BKN,0.00,WeatherDisplay:10.37,2013-06-06 14:00:00,
2013-06-06 09:06:00,62.8,53.6,30.03,WNW,296,3.0,6.0,72,0.00,BKN,BKN,0.00,WeatherDisplay:10.37,2013-06-06 14:06:00,
2013-06-06 09:12:00,63.4,53.4,30.03,East,99,6.0,9.0,70,0.00,BKN,BKN,0.00,WeatherDisplay:10.37,2013-06-06 14:12:00,
2013-06-06 09:18:00,64.1,53.7,30.03,NE,52,5.0,7.0,69,0.00,BKN,BKN,0.00,WeatherDisplay:10.37,2013-06-06 14:18:00,
2013-06-06 09:24:00,63.6,53.7,30.03,NW,319,3.0,10.0,70,0.00,BKN,BKN,0.00,WeatherDisplay:10.37,2013-06-06 14:24:00,
2013-06-06 09:30:00,65.4,54.5,30.03,North,359,5.0,8.0,68,0.00,BKN,BKN,0.00,WeatherDisplay:10.37,2013-06-06 14:30:00,
2013-06-06 09:36:00,64.6,53.4,30.03,WNW,292,8.0,9.0,67,0.00,BKN,BKN,0.00,WeatherDisplay:10.37,2013-06-06 14:36:00,
2013-06-06 09:42:00,66.2,54.5,30.03,NNW,333,2.0,6.0,66,0.00,BKN,BKN,0.00,WeatherDisplay:10.37,2013-06-06 14:42:00,
2013-06-06 09:48:00,67.0,54.0,30.03,East,79,6.0,8.0,63,0.00,BKN,BKN,0.00,WeatherDisplay:10.37,2013-06-06 14:48:00,
2013-06-06 09:54:00,66.1,53.5,30.03,NNE,19,5.0,8.0,64,0.00,BKN,BKN,0.00,WeatherDisplay:10.37,2013-06-06 14:54:00,
2013-06-06 10:00:00,66.2,53.6,30.03,North,4,5.0,6.0,64,0.00,BKN,BKN,0.00,WeatherDisplay:10.37,2013-06-06 15:00:00,
2013-06-06 10:06:00,67.1,54.9,30.03,NNW,337,2.0,3.0,65,0.00,BKN,BKN,0.00,WeatherDisplay:10.37,2013-06-06 15:06:00,
2013-06-06 10:12:00,67.0,53.6,30.03,NNW,333,6.0,8.0,62,0.00,BKN,BKN,0.00,WeatherDisplay:10.37,2013-06-06 15:12:00,
2013-06-06 10:18:00,66.6,53.1,30.03,NW,320,5.0,9.0,62,0.00,BKN,BKN,0.00,WeatherDisplay:10.37,2013-06-06 15:18:00,
2013-06-06 10:24:00,67.4,53.5,30.03,NE,52,6.0,7.0,61,0.00,BKN,BKN,0.00,WeatherDisplay:10.37,2013-06-06 15:24:00,
2013-06-06 10:30:00,67.9,53.5,30.03,ENE,70,3.0,9.0,60,0.00,BKN,BKN,0.00,WeatherDisplay:10.37,2013-06-06 15:30:00,
2013-06-06 10:36:00,67.7,53.3,30.03,NE,56,3.0,8.0,60,0.00,BKN,BKN,0.00,WeatherDisplay:10.37,2013-06-06 15:36:00,
2013-06-06 10:42:00,67.9,53.1,30.04,ESE,102,6.0,9.0,59,0.00,BKN,BKN,0.00,WeatherDisplay:10.37,2013-06-06 15:42:00,
2013-06-06 10:48:00,68.3,52.9,30.04,ESE,120,6.0,9.0,58,0.00,BKN,BKN,0.00,WeatherDisplay:10.37,2013-06-06 15:48:00,
2013-06-06 10:54:00,68.9,54.0,30.03,WSW,242,5.0,6.0,59,0.00,BKN,BKN,0.00,WeatherDisplay:10.37,2013-06-06 15:54:00,
2013-06-06 11:00:00,68.8,53.8,30.03,WNW,291,5.0,8.0,59,0.00,BKN,BKN,0.00,WeatherDisplay:10.37,2013-06-06 16:00:00,
2013-06-06 11:06:00,68.4,53.0,30.03,NW,304,7.0,8.0,58,0.00,BKN,BKN,0.00,WeatherDisplay:10.37,2013-06-06 16:06:00,
2013-06-06 11:12:00,69.6,53.7,30.03,WNW,290,7.0,8.0,57,0.00,BKN,BKN,0.00,WeatherDisplay:10.37,2013-06-06 16:12:00,
2013-06-06 11:18:00,69.5,53.6,30.03,NNW,342,5.0,7.0,57,0.00,BKN,BKN,0.00,WeatherDisplay:10.37,2013-06-06 16:18:00,
2013-06-06 11:24:00,70.1,53.7,30.03,NW,316,6.0,8.0,56,0.00,BKN,BKN,0.00,WeatherDisplay:10.37,2013-06-06 16:24:00,
2013-06-06 11:30:00,70.4,53.4,30.04,NNE,19,7.0,12.0,55,0.00,BKN,BKN,0.00,WeatherDisplay:10.37,2013-06-06 16:30:00,
2013-06-06 11:36:00,70.9,54.4,30.04,NE,35,6.0,11.0,56,0.00,BKN,BKN,0.00,WeatherDisplay:10.37,2013-06-06 16:36:00,
2013-06-06 11:42:00,70.6,53.2,30.03,WNW,293,7.0,8.0,54,0.00,BKN,BKN,0.00,WeatherDisplay:10.37,2013-06-06 16:42:00,
2013-06-06 11:48:00,70.6,53.2,30.03,WNW,285,7.0,9.0,54,0.00,BKN,BKN,0.00,WeatherDisplay:10.37,2013-06-06 16:48:00,
2013-06-06 11:54:00,71.0,53.5,30.03,NW,316,5.0,8.0,54,0.00,BKN,BKN,0.00,WeatherDisplay:10.37,2013-06-06 16:54:00,
2013-06-06 12:00:00,70.9,53.9,30.03,WNW,285,6.0,9.0,55,0.00,BKN,BKN,0.00,WeatherDisplay:10.37,2013-06-06 17:00:00,
2013-06-06 12:06:00,71.0,53.5,30.03,West,269,8.0,13.0,54,0.00,BKN,BKN,0.00,WeatherDisplay:10.37,2013-06-06 17:06:00,
2013-06-06 12:12:00,71.8,53.3,30.03,WSW,256,8.0,10.0,52,0.00,BKN,BKN,0.00,WeatherDisplay:10.37,2013-06-06 17:12:00,
2013-06-06 12:18:00,72.0,52.8,30.03,North,354,5.0,13.0,51,0.00,BKN,BKN,0.00,WeatherDisplay:10.37,2013-06-06 17:18:00,
2013-06-06 12:24:00,72.3,53.2,30.03,North,351,5.0,8.0,51,0.00,BKN,BKN,0.00,WeatherDisplay:10.37,2013-06-06 17:24:00,
2013-06-06 12:30:00,72.3,52.6,30.02,NW,307,7.0,12.0,50,0.00,BKN,BKN,0.00,WeatherDisplay:10.37,2013-06-06 17:30:00,
2013-06-06 12:36:00,73.1,52.8,30.02,NW,313,8.0,12.0,49,0.00,BKN,BKN,0.00,WeatherDisplay:10.37,2013-06-06 17:36:00,
2013-06-06 12:42:00,72.8,53.1,30.02,NNW,330,6.0,10.0,50,0.00,BKN,BKN,0.00,WeatherDisplay:10.37,2013-06-06 17:42:00,
2013-06-06 12:48:00,73.2,52.9,30.02,WNW,299,14.0,18.0,49,0.00,BKN,BKN,0.00,WeatherDisplay:10.37,2013-06-06 17:48:00,
2013-06-06 12:54:00,73.0,52.7,30.01,WNW,298,15.0,17.0,49,0.00,BKN,BKN,0.00,WeatherDisplay:10.37,2013-06-06 17:54:00,
2013-06-06 13:00:00,72.9,52.1,30.01,WNW,296,12.0,17.0,48,0.00,BKN,BKN,0.00,WeatherDisplay:10.37,2013-06-06 18:00:00,
2013-06-06 13:06:00,73.8,51.7,30.01,West,275,6.0,12.0,46,0.00,BKN,BKN,0.00,WeatherDisplay:10.37,2013-06-06 18:06:00,
2013-06-06 13:12:00,74.3,52.1,30.01,West,272,8.0,8.0,46,0.00,BKN,BKN,0.00,WeatherDisplay:10.37,2013-06-06 18:12:00,
2013-06-06 13:18:00,74.5,51.7,30.00,WNW,300,7.0,18.0,45,0.00,BKN,BKN,0.00,WeatherDisplay:10.37,2013-06-06 18:18:00,
2013-06-06 13:24:00,75.2,51.8,30.00,NNW,337,7.0,10.0,44,0.00,BKN,BKN,0.00,WeatherDisplay:10.37,2013-06-06 18:24:00,
2013-06-06 13:30:00,74.8,52.0,30.00,WSW,244,8.0,16.0,45,0.00,BKN,BKN,0.00,WeatherDisplay:10.37,2013-06-06 18:30:00,
2013-06-06 13:36:00,74.9,52.1,30.00,WNW,283,13.0,22.0,45,0.00,BKN,BKN,0.00,WeatherDisplay:10.37,2013-06-06 18:36:00,
2013-06-06 13:42:00,76.1,52.6,30.01,WNW,289,12.0,15.0,44,0.00,BKN,BKN,0.00,WeatherDisplay:10.37,2013-06-06 18:42:00,
2013-06-06 13:48:00,76.2,52.1,30.01,WNW,297,9.0,16.0,43,0.00,BKN,BKN,0.00,WeatherDisplay:10.37,2013-06-06 18:48:00,
2013-06-06 13:54:00,76.5,52.3,30.01,West,281,5.0,5.0,43,0.00,BKN,BKN,0.00,WeatherDisplay:10.37,2013-06-06 18:54:00,
2013-06-06 14:00:00,76.5,52.3,30.01,WSW,247,5.0,5.0,43,0.00,BKN,BKN,0.00,WeatherDisplay:10.37,2013-06-06 19:00:00,
2013-06-06 14:06:00,75.2,51.1,30.01,West,277,10.0,18.0,43,0.00,BKN,BKN,0.00,WeatherDisplay:10.37,2013-06-06 19:06:00,
2013-06-06 14:12:00,76.6,53.1,30.01,NW,316,10.0,18.0,44,0.00,BKN,BKN,0.00,WeatherDisplay:10.37,2013-06-06 19:12:00,
2013-06-06 14:18:00,75.5,52.6,30.01,WNW,293,7.0,17.0,45,0.00,BKN,BKN,0.00,WeatherDisplay:10.37,2013-06-06 19:18:00,
2013-06-06 14:24:00,73.4,50.8,30.01,NW,304,12.0,17.0,45,0.00,BKN,BKN,0.00,WeatherDisplay:10.37,2013-06-06 19:24:00,
2013-06-06 14:30:00,75.9,52.4,30.01,WNW,290,10.0,20.0,44,0.00,BKN,BKN,0.00,WeatherDisplay:10.37,2013-06-06 19:30:00,
2013-06-06 14:36:00,75.8,52.3,30.01,WNW,294,14.0,20.0,44,0.00,BKN,BKN,0.00,WeatherDisplay:10.37,2013-06-06 19:36:00,
2013-06-06 14:39:00,75.3,51.2,30.01,WNW,297,12.0,16.0,43,0.00,BKN,BKN,0.00,WeatherDisplay:10.37,2013-06-06 19:39:00,
2013-06-06 14:45:00,73.4,51.4,30.01,WNW,299,16.0,20.0,46,0.00,BKN,BKN,0.00,WeatherDisplay:10.37,2013-06-06 19:45:00,
2013-06-06 14:51:00,74.9,52.2,30.01,NW,310,10.0,22.0,45,0.00,BKN,BKN,0.00,WeatherDisplay:10.37,2013-06-06 19:51:00,
2013-06-06 14:57:00,74.3,52.2,30.01,NNW,333,7.0,12.0,46,0.00,BKN,BKN,0.00,WeatherDisplay:10.37,2013-06-06 19:57:00,
2013-06-06 15:03:00,76.8,52.6,30.01,NNW,344,7.0,11.0,43,0.00,BKN,BKN,0.00,WeatherDisplay:10.37,2013-06-06 20:03:00,
2013-06-06 15:09:00,75.9,51.8,30.01,North,6,9.0,12.0,43,0.00,BKN,BKN,0.00,WeatherDisplay:10.37,2013-06-06 20:09:00,
2013-06-06 15:15:00,76.8,51.9,30.01,North,357,9.0,16.0,42,0.00,BKN,BKN,0.00,WeatherDisplay:10.37,2013-06-06 20:15:00,
2013-06-06 15:21:00,76.2,52.0,30.01,NNW,346,7.0,14.0,43,0.00,BKN,BKN,0.00,WeatherDisplay:10.37,2013-06-06 20:21:00,
2013-06-06 15:27:00,76.5,53.0,30.00,West,278,9.0,12.0,44,0.00,BKN,BKN,0.00,WeatherDisplay:10.37,2013-06-06 20:27:00,
2013-06-06 15:33:00,75.8,52.4,30.00,WNW,292,10.0,15.0,44,0.00,BKN,BKN,0.00,WeatherDisplay:10.37,2013-06-06 20:33:00,
2013-06-06 15:39:00,74.1,51.4,30.00,NNW,340,10.0,14.0,45,0.00,BKN,BKN,0.00,WeatherDisplay:10.37,2013-06-06 20:39:00,
2013-06-06 15:45:00,76.1,50.7,30.00,NNW,328,7.0,14.0,41,0.00,BKN,BKN,0.00,WeatherDisplay:10.37,2013-06-06 20:45:00,
2013-06-06 15:51:00,74.2,50.2,30.00,NW,307,10.0,18.0,43,0.00,BKN,BKN,0.00,WeatherDisplay:10.37,2013-06-06 20:51:00,
2013-06-06 15:57:00,75.7,50.9,30.00,NNW,327,12.0,17.0,42,0.00,BKN,BKN,0.00,WeatherDisplay:10.37,2013-06-06 20:57:00,
2013-06-06 16:03:00,75.6,51.6,29.99,NW,306,6.0,14.0,43,0.00,SCT,SCT,0.00,WeatherDisplay:10.37,2013-06-06 21:03:00,
2013-06-06 16:09:00,75.9,51.1,29.99,NW,307,6.0,12.0,42,0.00,SCT,SCT,0.00,WeatherDisplay:10.37,2013-06-06 21:09:00,
2013-06-06 16:15:00,76.2,50.7,29.99,NW,323,7.0,12.0,41,0.00,SCT,SCT,0.00,WeatherDisplay:10.37,2013-06-06 21:15:00,
2013-06-06 16:21:00,75.4,50.7,29.99,NW,304,10.0,17.0,42,0.00,SCT,SCT,0.00,WeatherDisplay:10.37,2013-06-06 21:21:00,
2013-06-06 16:27:00,76.2,51.4,29.98,NW,326,9.0,13.0,42,0.00,SCT,SCT,0.00,WeatherDisplay:10.37,2013-06-06 21:27:00,
2013-06-06 16:33:00,76.7,50.6,29.98,NW,305,12.0,15.0,40,0.00,SCT,SCT,0.00,WeatherDisplay:10.37,2013-06-06 21:33:00,
2013-06-06 16:39:00,76.5,51.0,29.98,NNE,29,13.0,13.0,41,0.00,SCT,SCT,0.00,WeatherDisplay:10.37,2013-06-06 21:39:00,
2013-06-06 16:45:00,76.7,51.2,29.98,ESE,108,8.0,13.0,41,0.00,SCT,SCT,0.00,WeatherDisplay:10.37,2013-06-06 21:45:00,
2013-06-06 16:51:00,76.3,50.2,29.98,SE,141,12.0,17.0,40,0.00,SCT,SCT,0.00,WeatherDisplay:10.37,2013-06-06 21:51:00,
2013-06-06 16:57:00,76.2,50.8,29.98,West,274,16.0,20.0,41,0.00,SCT,SCT,0.00,WeatherDisplay:10.37,2013-06-06 21:57:00,
2013-06-06 17:03:00,75.3,50.0,29.98,WNW,284,12.0,18.0,41,0.00,SCT,SCT,0.00,WeatherDisplay:10.37,2013-06-06 22:03:00,
2013-06-06 17:09:00,76.3,50.2,29.98,NW,318,10.0,14.0,40,0.00,SCT,SCT,0.00,WeatherDisplay:10.37,2013-06-06 22:09:00,
2013-06-06 17:15:00,77.1,51.6,29.98,WNW,282,8.0,16.0,41,0.00,SCT,SCT,0.00,WeatherDisplay:10.37,2013-06-06 22:15:00,
2013-06-06 17:21:00,76.1,50.6,29.98,NW,306,9.0,15.0,41,0.00,SCT,SCT,0.00,WeatherDisplay:10.37,2013-06-06 22:21:00,
2013-06-06 17:27:00,75.9,50.5,29.98,WNW,299,8.0,14.0,41,0.00,SCT,SCT,0.00,WeatherDisplay:10.37,2013-06-06 22:27:00,
2013-06-06 17:33:00,76.7,50.5,29.98,North,5,7.0,14.0,40,0.00,SCT,SCT,0.00,WeatherDisplay:10.37,2013-06-06 22:33:00,
2013-06-06 17:39:00,76.6,51.8,29.97,NNW,342,7.0,10.0,42,0.00,SCT,SCT,0.00,WeatherDisplay:10.37,2013-06-06 22:39:00,
2013-06-06 17:45:00,77.6,52.1,29.97,NW,315,6.0,8.0,41,0.00,SCT,SCT,0.00,WeatherDisplay:10.37,2013-06-06 22:45:00,
2013-06-06 17:51:00,76.7,51.8,29.97,WNW,286,6.0,10.0,42,0.00,SCT,SCT,0.00,WeatherDisplay:10.37,2013-06-06 22:51:00,
2013-06-06 17:57:00,76.3,51.5,29.97,WNW,301,3.0,12.0,42,0.00,SCT,SCT,0.00,WeatherDisplay:10.37,2013-06-06 22:57:00,
2013-06-06 18:03:00,75.9,50.5,29.97,ENE,68,6.0,9.0,41,0.00,FEW,FEW,0.00,WeatherDisplay:10.37,2013-06-06 23:03:00,
2013-06-06 18:09:00,76.0,50.6,29.97,WNW,301,6.0,13.0,41,0.00,FEW,FEW,0.00,WeatherDisplay:10.37,2013-06-06 23:09:00,
2013-06-06 18:15:00,75.5,50.1,29.97,WNW,286,7.0,12.0,41,0.00,FEW,FEW,0.00,WeatherDisplay:10.37,2013-06-06 23:15:00,
2013-06-06 18:21:00,75.9,50.5,29.97,North,353,6.0,11.0,41,0.00,FEW,FEW,0.00,WeatherDisplay:10.37,2013-06-06 23:21:00,
2013-06-06 18:27:00,75.4,50.0,29.97,NE,53,9.0,13.0,41,0.00,FEW,FEW,0.00,WeatherDisplay:10.37,2013-06-06 23:27:00,
2013-06-06 18:33:00,75.9,50.5,29.97,NNE,33,5.0,11.0,41,0.00,FEW,FEW,0.00,WeatherDisplay:10.37,2013-06-06 23:33:00,
2013-06-06 18:39:00,75.4,50.0,29.97,WNW,295,8.0,10.0,41,0.00,FEW,FEW,0.00,WeatherDisplay:10.37,2013-06-06 23:39:00,
2013-06-06 18:45:00,76.0,50.6,29.97,WNW,285,9.0,14.0,41,0.00,FEW,FEW,0.00,WeatherDisplay:10.37,2013-06-06 23:45:00,
2013-06-06 18:51:00,76.0,51.2,29.96,WNW,302,6.0,13.0,42,0.00,FEW,FEW,0.00,WeatherDisplay:10.37,2013-06-06 23:51:00,
2013-06-06 18:57:00,75.2,50.5,29.96,NNW,333,5.0,10.0,42,0.00,FEW,FEW,0.00,WeatherDisplay:10.37,2013-06-06 23:57:00,
2013-06-06 19:03:00,75.1,49.1,29.96,NE,36,7.0,13.0,40,0.00,CLR,CLR,0.00,WeatherDisplay:10.37,2013-06-07 00:03:00,
2013-06-06 19:09:00,74.8,49.5,29.96,NE,41,6.0,8.0,41,0.00,CLR,CLR,0.00,WeatherDisplay:10.37,2013-06-07 00:09:00,
2013-06-06 19:15:00,75.0,49.0,29.96,NE,49,5.0,10.0,40,0.00,CLR,CLR,0.00,WeatherDisplay:10.37,2013-06-07 00:15:00,
2013-06-06 19:21:00,74.5,49.2,29.96,NNE,21,7.0,10.0,41,0.00,CLR,CLR,0.00,WeatherDisplay:10.37,2013-06-07 00:21:00,
2013-06-06 19:27:00,74.1,49.5,29.96,North,5,6.0,9.0,42,0.00,CLR,CLR,0.00,WeatherDisplay:10.37,2013-06-07 00:27:00,
2013-06-06 19:33:00,74.2,49.7,29.96,NNW,346,6.0,12.0,42,0.00,CLR,CLR,0.00,WeatherDisplay:10.37,2013-06-07 00:33:00,
2013-06-06 19:39:00,74.4,49.8,29.96,North,352,3.0,6.0,42,0.00,CLR,CLR,0.00,WeatherDisplay:10.37,2013-06-07 00:39:00,
2013-06-06 19:45:00,74.2,49.6,29.96,NW,316,6.0,11.0,42,0.00,CLR,CLR,0.00,WeatherDisplay:10.37,2013-06-07 00:45:00,
2013-06-06 19:51:00,73.9,50.0,29.96,NNW,335,2.0,6.0,43,0.00,CLR,CLR,0.00,WeatherDisplay:10.37,2013-06-07 00:51:00,
2013-06-06 19:57:00,74.2,50.8,29.96,North,11,5.0,7.0,44,0.00,CLR,CLR,0.00,WeatherDisplay:10.37,2013-06-07 00:57:00,
2013-06-06 20:03:00,73.4,50.1,29.96,NE,36,3.0,5.0,44,0.00,FEW,FEW,0.00,WeatherDisplay:10.37,2013-06-07 01:03:00,
2013-06-06 20:09:00,74.2,50.9,29.96,NNW,348,3.0,7.0,44,0.00,FEW,FEW,0.00,WeatherDisplay:10.37,2013-06-07 01:09:00,
2013-06-06 20:15:00,75.0,51.6,29.97,NNE,32,1.0,4.0,44,0.00,FEW,FEW,0.00,WeatherDisplay:10.37,2013-06-07 01:15:00,
2013-06-06 20:21:00,75.1,51.0,29.97,NNE,25,0.0,3.0,43,0.00,FEW,FEW,0.00,WeatherDisplay:10.37,2013-06-07 01:21:00,
2013-06-06 20:27:00,74.6,50.6,29.96,NE,50,1.0,3.0,43,0.00,FEW,FEW,0.00,WeatherDisplay:10.37,2013-06-07 01:27:00,
2013-06-06 20:33:00,73.8,50.5,29.96,NNE,32,2.0,5.0,44,0.00,FEW,FEW,0.00,WeatherDisplay:10.37,2013-06-07 01:33:00,
2013-06-06 20:39:00,73.0,51.0,29.97,NNE,19,0.0,2.0,46,0.00,FEW,FEW,0.00,WeatherDisplay:10.37,2013-06-07 01:39:00,
2013-06-06 20:45:00,72.0,50.6,29.97,ENE,66,0.0,2.0,47,0.00,FEW,FEW,0.00,WeatherDisplay:10.37,2013-06-07 01:45:00,
2013-06-06 20:51:00,71.6,50.3,29.96,East,88,0.0,0.0,47,0.00,FEW,FEW,0.00,WeatherDisplay:10.37,2013-06-07 01:51:00,
2013-06-06 20:57:00,70.6,50.5,29.96,East,90,0.0,0.0,49,0.00,FEW,FEW,0.00,WeatherDisplay:10.37,2013-06-07 01:57:00,
2013-06-06 21:03:00,69.7,50.7,29.97,East,90,0.0,0.0,51,0.00,FEW,FEW,0.00,WeatherDisplay:10.37,2013-06-07 02:03:00,
2013-06-06 21:09:00,68.9,50.5,29.97,East,90,0.0,0.0,52,0.00,FEW,FEW,0.00,WeatherDisplay:10.37,2013-06-07 02:09:00,
2013-06-06 21:15:00,67.9,50.2,29.97,East,90,0.0,0.0,53,0.00,FEW,FEW,0.00,WeatherDisplay:10.37,2013-06-07 02:15:00,
2013-06-06 21:21:00,67.2,50.0,29.97,East,90,0.0,0.0,54,0.00,FEW,FEW,0.00,WeatherDisplay:10.37,2013-06-07 02:21:00,
2013-06-06 21:27:00,66.4,50.2,29.97,East,90,0.0,0.0,56,0.00,FEW,FEW,0.00,WeatherDisplay:10.37,2013-06-07 02:27:00,
2013-06-06 21:33:00,65.9,50.2,29.97,East,90,0.0,0.0,57,0.00,FEW,FEW,0.00,WeatherDisplay:10.37,2013-06-07 02:33:00,
2013-06-06 21:39:00,65.2,50.0,29.98,East,90,0.0,0.0,58,0.00,FEW,FEW,0.00,WeatherDisplay:10.37,2013-06-07 02:39:00,
2013-06-06 21:45:00,64.3,50.2,29.98,East,90,0.0,0.0,60,0.00,FEW,FEW,0.00,WeatherDisplay:10.37,2013-06-07 02:45:00,
2013-06-06 21:51:00,63.9,50.6,29.98,East,90,0.0,0.0,62,0.00,FEW,FEW,0.00,WeatherDisplay:10.37,2013-06-07 02:51:00,
2013-06-06 21:57:00,63.5,51.1,29.98,East,90,0.0,0.0,64,0.00,FEW,FEW,0.00,WeatherDisplay:10.37,2013-06-07 02:57:00,
2013-06-06 22:03:00,63.0,51.0,29.98,East,90,0.0,0.0,65,0.00,FEW,FEW,0.00,WeatherDisplay:10.37,2013-06-07 03:03:00,
2013-06-06 22:09:00,62.6,51.4,29.98,East,90,0.0,0.0,67,0.00,FEW,FEW,0.00,WeatherDisplay:10.37,2013-06-07 03:09:00,
2013-06-06 22:15:00,62.1,51.4,29.99,East,90,0.0,0.0,68,0.00,FEW,FEW,0.00,WeatherDisplay:10.37,2013-06-07 03:15:00,
2013-06-06 22:21:00,61.7,51.0,29.99,East,90,0.0,0.0,68,0.00,FEW,FEW,0.00,WeatherDisplay:10.37,2013-06-07 03:21:00,
2013-06-06 22:27:00,61.4,51.5,29.99,East,90,0.0,0.0,70,0.00,FEW,FEW,0.00,WeatherDisplay:10.37,2013-06-07 03:27:00,
2013-06-06 22:33:00,60.8,51.3,29.99,East,90,0.0,0.0,71,0.00,FEW,FEW,0.00,WeatherDisplay:10.37,2013-06-07 03:33:00,
2013-06-06 22:39:00,60.5,51.0,30.00,East,90,0.0,0.0,71,0.00,FEW,FEW,0.00,WeatherDisplay:10.37,2013-06-07 03:39:00,
2013-06-06 22:45:00,60.5,51.0,30.00,East,90,0.0,0.0,71,0.00,FEW,FEW,0.00,WeatherDisplay:10.37,2013-06-07 03:45:00,
2013-06-06 22:51:00,60.5,51.8,30.00,East,90,0.0,0.0,73,0.00,FEW,FEW,0.00,WeatherDisplay:10.37,2013-06-07 03:51:00,
2013-06-06 22:57:00,60.1,51.8,30.00,East,90,0.0,0.0,74,0.00,FEW,FEW,0.00,WeatherDisplay:10.37,2013-06-07 03:57:00,
2013-06-06 23:03:00,59.6,52.0,30.00,East,90,0.0,0.0,76,0.00,CLR,CLR,0.00,WeatherDisplay:10.37,2013-06-07 04:03:00,
2013-06-06 23:06:00,59.2,51.6,30.00,East,90,0.0,0.0,76,0.00,CLR,CLR,0.00,WeatherDisplay:10.37,2013-06-07 04:06:00,
2013-06-06 23:09:00,59.2,52.0,30.00,East,90,0.0,0.0,77,0.00,CLR,CLR,0.00,WeatherDisplay:10.37,2013-06-07 04:09:00,
2013-06-06 23:15:00,59.0,51.8,30.00,East,90,0.0,0.0,77,0.00,CLR,CLR,0.00,WeatherDisplay:10.37,2013-06-07 04:15:00,
2013-06-06 23:18:00,58.7,51.8,30.00,East,90,0.0,0.0,78,0.00,CLR,CLR,0.00,WeatherDisplay:10.37,2013-06-07 04:18:00,
2013-06-06 23:24:00,58.5,51.6,30.00,East,90,0.0,0.0,78,0.00,CLR,CLR,0.00,WeatherDisplay:10.37,2013-06-07 04:24:00,
2013-06-06 23:27:00,58.5,51.6,30.00,East,90,0.0,0.0,78,0.00,CLR,CLR,0.00,WeatherDisplay:10.37,2013-06-07 04:27:00,
2013-06-06 23:33:00,58.9,53.1,30.00,East,86,0.0,0.0,81,0.00,CLR,CLR,0.00,WeatherDisplay:10.37,2013-06-07 04:33:00,
2013-06-06 23:39:00,59.4,53.5,30.00,NW,304,0.0,2.0,81,0.00,CLR,CLR,0.00,WeatherDisplay:10.37,2013-06-07 04:39:00,
2013-06-06 23:45:00,59.4,53.5,30.00,NW,315,2.0,3.0,81,0.00,CLR,CLR,0.00,WeatherDisplay:10.37,2013-06-07 04:45:00,
2013-06-06 23:51:00,59.2,53.3,30.00,NW,311,0.0,0.0,81,0.00,CLR,CLR,0.00,WeatherDisplay:10.37,2013-06-07 04:51:00,
2013-06-06 23:57:00,59.4,53.2,30.00,NW,308,3.0,5.0,80,0.00,CLR,CLR,0.00,WeatherDisplay:10.37,2013-06-07 04:57:00,